2022年8月17日

时间 代码 天气 温度 能见度 天花板 METAR/SPECI
08:25
V
20 °C 10 km+ - 020° 020° 9 kt METAR EHLE 170625Z AUTO 02009KT 9999 -RA FEW009 FEW015CB SCT041 20/19 Q1010 TEMPO 7000 SHRA SCT040CB
07:55
V
20 °C 10 km+ - 340° 340° 8 kt METAR EHLE 170555Z AUTO 34008KT 320V020 9999 NSC 20/19 Q1010 TEMPO 7000 SHRA SCT040CB
07:25
V
20 °C 10 km+ - 330° 330° 6 kt METAR EHLE 170525Z AUTO 33006KT 290V010 9999 -RA FEW017 SCT043 20/19 Q1010 TEMPO 7000 SHRA SCT040CB
06:55
M
20 °C 6 km - 330° 330° 7 kt METAR EHLE 170455Z AUTO 33007KT 6000 FEW015CB 20/19 Q1010 REDZ BECMG 9999
06:25
V
19 °C 10 km+ - 340° 340° 7 kt METAR EHLE 170425Z AUTO 34007KT 310V010 9999 FEW015CB 19/18 Q1010 REDZ
05:55
V
19 °C 9 km - 330° 330° 4 kt METAR EHLE 170355Z AUTO 33004KT 300V360 9000 -RADZ FEW015CB 19/17 Q1010 RETS
05:25
M
18 °C 6 km - 270° 270° 9 kt METAR EHLE 170325Z AUTO 27009KT 240V340 6000 TS FEW015CB 18/17 Q1010 REDZ
04:55
V
18 °C 8 km - Var Var 1 kt METAR EHLE 170255Z AUTO VRB01KT 8000 -RA FEW015CB 18/17 Q1010 RERA REDZ
04:25
V
19 °C 10 km+ - 070° 070° 5 kt METAR EHLE 170225Z AUTO 07005KT 9999 -RA NSC 19/17 Q1010
03:55
M
18 °C 7 km - 040° 040° 5 kt METAR EHLE 170155Z AUTO 04005KT 7000 BR NSC 18/16 Q1010
03:25
M
18 °C 5 km - 050° 050° 6 kt METAR EHLE 170125Z AUTO 05006KT 5000 BR NSC 18/16 Q1010
02:55
M
17 °C 7 km - 040° 040° 5 kt METAR EHLE 170055Z AUTO 04005KT 7000 NSC 17/16 Q1010
02:25
M
18 °C 7 km - 050° 050° 5 kt METAR EHLE 170025Z AUTO 05005KT 7000 NSC 18/16 Q1010
01:55
V
18 °C 10 km+ - 050° 050° 4 kt METAR EHLE 162355Z AUTO 05004KT 040V100 9999 NCD 18/16 Q1010
01:25
V
18 °C 10 km+ - 030° 030° 4 kt METAR EHLE 162325Z AUTO 03004KT 9999 NCD 18/17 Q1010
00:55
V
18 °C 10 km+ - 050° 050° 4 kt METAR EHLE 162255Z AUTO 05004KT 9999 NSC 18/16 Q1010
00:25
V
20 °C 10 km+ - 080° 080° 3 kt METAR EHLE 162225Z AUTO 08003KT 9999 NSC 20/17 Q1010

2022年8月16日

时间 代码 天气 温度 能见度 天花板 METAR/SPECI
23:55
V
20 °C 10 km+ - 060° 060° 3 kt METAR EHLE 162155Z AUTO 06003KT 9999 NSC 20/17 Q1010
23:25
V
20 °C 10 km+ - 070° 070° 3 kt METAR EHLE 162125Z AUTO 07003KT 9999 NSC 20/18 Q1010
22:55
V
20 °C 10 km+ - Var Var 2 kt METAR EHLE 162055Z AUTO VRB02KT 9999 NSC 20/18 Q1010
22:25
V
20 °C 10 km+ - 030° 030° 2 kt METAR EHLE 162025Z AUTO 03002KT 9999 NSC 20/18 Q1010 NOSIG
21:55
V
21 °C 10 km+ - 020° 020° 3 kt METAR EHLE 161955Z AUTO 02003KT 9999 NSC 21/19 Q1010 NOSIG
21:25
V
21 °C 10 km+ - 350° 350° 3 kt METAR EHLE 161925Z AUTO 35003KT 9999 NSC 21/18 Q1009 NOSIG
20:55
V
22 °C 10 km+ - 320° 320° 4 kt METAR EHLE 161855Z AUTO 32004KT 9999 NSC 22/18 Q1009 NOSIG
20:25
V
23 °C 10 km+ - 310° 310° 4 kt METAR EHLE 161825Z AUTO 31004KT 9999 NSC 23/18 Q1009 NOSIG
19:55
V
24 °C 10 km+ - 310° 310° 5 kt METAR EHLE 161755Z AUTO 31005KT 280V340 9999 NSC 24/18 Q1009 NOSIG
19:25
V
25 °C 10 km+ - 300° 300° 5 kt METAR EHLE 161725Z AUTO 30005KT 260V340 9999 NSC 25/19 Q1009 NOSIG
18:55
V
25 °C 10 km+ - 310° 310° 7 kt METAR EHLE 161655Z AUTO 31007KT 280V350 9999 NSC 25/19 Q1009 NOSIG
18:25
V
24 °C 10 km+ - 290° 290° 6 kt METAR EHLE 161625Z AUTO 29006KT 260V330 9999 NSC 24/18 Q1009 NOSIG
17:55
V
25 °C 10 km+ - 320° 320° 7 kt METAR EHLE 161555Z AUTO 32007KT 270V350 9999 NSC 25/19 Q1008 NOSIG
17:25
V
25 °C 10 km+ - 310° 310° 7 kt METAR EHLE 161525Z AUTO 31007KT 280V340 9999 NSC 25/18 Q1008 NOSIG
16:55
V
25 °C 10 km+ - 310° 310° 8 kt METAR EHLE 161455Z AUTO 31008KT 270V360 9999 NSC 25/19 Q1008 NOSIG
16:25
V
26 °C 10 km+ - 310° 310° 7 kt METAR EHLE 161425Z AUTO 31007KT 270V350 9999 NSC 26/19 Q1008 NOSIG
15:55
V
26 °C 10 km+ - 290° 290° 7 kt METAR EHLE 161355Z AUTO 29007KT 9999 NSC 26/19 Q1008 NOSIG
15:25
V
26 °C 10 km+ - 270° 270° 7 kt METAR EHLE 161325Z AUTO 27007KT 230V310 9999 SCT035 26/18 Q1008 NOSIG
14:55
V
27 °C 10 km+ - 280° 280° 7 kt METAR EHLE 161255Z AUTO 28007KT 220V320 9999 FEW031 SCT035 27/19 Q1008 NOSIG
14:25
V
27 °C 10 km+ - 270° 270° 8 kt METAR EHLE 161225Z AUTO 27008KT 220V320 9999 FEW033 27/18 Q1008 NOSIG
13:55
V
26 °C 10 km+ - 270° 270° 8 kt METAR EHLE 161155Z AUTO 27008KT 230V310 9999 NSC 26/17 Q1008 NOSIG
13:25
V
26 °C 10 km+ - 230° 230° 7 kt METAR EHLE 161125Z AUTO 23007KT 180V280 9999 NSC 26/16 Q1007 NOSIG
12:55
V
26 °C 10 km+ - 230° 230° 8 kt METAR EHLE 161055Z AUTO 23008KT 190V280 9999 NSC 26/16 Q1007 NOSIG
12:25
V
25 °C 10 km+ - 220° 220° 8 kt METAR EHLE 161025Z AUTO 22008KT 180V270 9999 NSC 25/17 Q1007 NOSIG
11:55
V
25 °C 10 km+ - 230° 230° 7 kt METAR EHLE 160955Z AUTO 23007KT 180V280 9999 NSC 25/17 Q1007 NOSIG
11:25
V
24 °C 10 km+ - 220° 220° 4 kt METAR EHLE 160925Z AUTO 22004KT 170V280 9999 NSC 24/17 Q1007 NOSIG
10:55
V
24 °C 10 km+ - 230° 230° 8 kt METAR EHLE 160855Z AUTO 23008KT 190V260 9999 NSC 24/17 Q1007 NOSIG
10:25
V
23 °C 10 km+ - 230° 230° 5 kt METAR EHLE 160825Z AUTO 23005KT 180V290 9999 NSC 23/17 Q1007 NOSIG
09:55
V
22 °C 10 km+ - 220° 220° 7 kt METAR EHLE 160755Z AUTO 22007KT 200V260 9999 NSC 22/18 Q1006 NOSIG
09:25
V
21 °C 10 km+ - 220° 220° 6 kt METAR EHLE 160725Z AUTO 22006KT 190V250 9999 NCD 21/17 Q1006 NOSIG
08:55
V
20 °C 10 km+ - 220° 220° 6 kt METAR EHLE 160655Z AUTO 22006KT 180V240 9999 NSC 20/17 Q1006 NOSIG
08:25
V
20 °C 10 km+ - 210° 210° 6 kt METAR EHLE 160625Z AUTO 21006KT 180V240 9999 NSC 20/17 Q1006 NOSIG
07:55
V
19 °C 10 km+ - 200° 200° 5 kt METAR EHLE 160555Z AUTO 20005KT 170V230 9999 NSC 19/17 Q1006 NOSIG
07:25
V
18 °C 10 km+ - 210° 210° 4 kt METAR EHLE 160525Z AUTO 21004KT 180V240 9999 NSC 18/17 Q1006 NOSIG
06:55
M
16 °C 7 km - 150° 150° 6 kt METAR EHLE 160455Z AUTO 15006KT 7000 NSC 16/15 Q1005 BECMG CAVOK
06:25
M
15 °C 7 km - 170° 170° 6 kt METAR EHLE 160425Z AUTO 17006KT 7000 NSC 15/14 Q1005
05:55
M
15 °C 7 km - 180° 180° 5 kt METAR EHLE 160355Z AUTO 18005KT 7000 NSC 15/15 Q1005
05:25
V
16 °C 10 km+ - 190° 190° 5 kt METAR EHLE 160325Z AUTO 19005KT 9999 NCD 16/15 Q1005
04:55
V
16 °C 9 km - 180° 180° 5 kt METAR EHLE 160255Z AUTO 18005KT 9000 NCD 16/15 Q1005
04:25
V
16 °C 9 km - 160° 160° 6 kt METAR EHLE 160225Z AUTO 16006KT 9000 NCD 16/15 Q1005
03:55
V
17 °C 10 km+ - 190° 190° 4 kt METAR EHLE 160155Z AUTO 19004KT 9999 NCD 17/16 Q1005
03:25
V
17 °C 10 km+ - 220° 220° 3 kt METAR EHLE 160125Z AUTO 22003KT 9999 NCD 17/16 Q1005
02:55
V
18 °C 10 km+ - 190° 190° 4 kt METAR EHLE 160055Z AUTO 19004KT 9999 NSC 18/17 Q1005
02:25
V
18 °C 10 km+ - 160° 160° 3 kt METAR EHLE 160025Z AUTO 16003KT 9999 NSC 18/17 Q1005
01:55
V
19 °C 9 km - Var Var 2 kt METAR EHLE 152355Z AUTO VRB02KT 9000 NSC 19/18 Q1005
01:25
V
19 °C 10 km+ - 200° 200° 3 kt METAR EHLE 152325Z AUTO 20003KT 150V230 9999 NSC 19/18 Q1005
00:55
V
19 °C 8 km - 170° 170° 5 kt METAR EHLE 152255Z AUTO 17005KT 8000 NCD 19/18 Q1005
00:25
V
20 °C 10 km+ - 150° 150° 4 kt METAR EHLE 152225Z AUTO 15004KT 9999 NSC 20/19 Q1005

2022年8月15日

时间 代码 天气 温度 能见度 天花板 METAR/SPECI
23:55
V
21 °C 10 km+ - Var Var 2 kt METAR EHLE 152155Z AUTO VRB02KT 9999 NSC 21/19 Q1005
23:25
V
21 °C 10 km+ - 200° 200° 5 kt METAR EHLE 152125Z AUTO 20005KT 9999 FEW015CB 21/19 Q1005
22:55
V
21 °C 10 km+ - Var Var 2 kt METAR EHLE 152055Z AUTO VRB02KT 9999 NSC 21/19 Q1005
22:25
V
22 °C 10 km+ - Var 000° 0 kt METAR EHLE 152025Z AUTO 00000KT 9999 NSC 22/18 Q1005 NOSIG
21:55
V
22 °C 10 km+ - Var Var 2 kt METAR EHLE 151955Z AUTO VRB02KT 9999 NSC 22/18 Q1005 NOSIG
21:25
V
22 °C 10 km+ - 290° 290° 3 kt METAR EHLE 151925Z AUTO 29003KT 9999 NSC 22/19 Q1004 NOSIG
20:55
V
23 °C 10 km+ - 280° 280° 3 kt METAR EHLE 151855Z AUTO 28003KT 9999 NSC 23/18 Q1004 NOSIG
20:25
V
24 °C 10 km+ - 340° 340° 3 kt METAR EHLE 151825Z AUTO 34003KT 9999 TS FEW025CB 24/18 Q1004 NOSIG
19:55
V
24 °C 10 km+ - 330° 330° 2 kt METAR EHLE 151755Z AUTO 33002KT 9999 NSC 24/18 Q1004 NOSIG
19:25
V
24 °C 10 km+ - 300° 300° 4 kt METAR EHLE 151725Z AUTO 30004KT 9999 NSC 24/18 Q1004 NOSIG
18:55
V
24 °C 10 km+ - 280° 280° 5 kt METAR EHLE 151655Z AUTO 28005KT 250V310 9999 NSC 24/17 Q1004 NOSIG
18:25
V
25 °C 10 km+ - 250° 250° 4 kt METAR EHLE 151625Z AUTO 25004KT 190V290 9999 NSC 25/17 Q1004 NOSIG
17:55
V
26 °C 10 km+ - 260° 260° 4 kt METAR EHLE 151555Z AUTO 26004KT 180V340 9999 FEW031 26/18 Q1004 NOSIG
17:25
V
26 °C 10 km+ - 270° 270° 7 kt METAR EHLE 151525Z AUTO 27007KT 230V300 9999 FEW035 26/17 Q1004 NOSIG
16:55
V
26 °C 10 km+ - Var Var 6 kt METAR EHLE 151455Z AUTO VRB06KT 9999 NSC 26/17 Q1004 NOSIG
16:25
V
26 °C 10 km+ - 230° 230° 7 kt METAR EHLE 151425Z AUTO 23007KT 200V270 9999 NSC 26/18 Q1004 NOSIG
15:55
V
26 °C 10 km+ - 230° 230° 10 kt METAR EHLE 151355Z AUTO 23010KT 180V260 9999 NSC 26/18 Q1004 NOSIG
15:25
V
26 °C 10 km+ - 230° 230° 10 kt METAR EHLE 151325Z AUTO 23010KT 210V280 9999 NSC 26/17 Q1003 NOSIG
14:55
V
26 °C 10 km+ - 230° 230° 11 kt METAR EHLE 151255Z AUTO 23011KT 190V260 9999 NSC 26/17 Q1004 NOSIG
14:25
V
25 °C 10 km+ - 210° 210° 10 kt METAR EHLE 151225Z AUTO 21010KT 9999 NSC 25/17 Q1003 NOSIG
13:55
V
26 °C 10 km+ - 210° 210° 10 kt METAR EHLE 151155Z AUTO 21010KT 9999 NSC 26/16 Q1003 NOSIG
13:25
V
27 °C 10 km+ - 210° 210° 4 kt METAR EHLE 151125Z AUTO 21004KT 140V260 9999 NSC 27/16 Q1003 NOSIG
12:55
V
26 °C 10 km+ - 230° 230° 5 kt METAR EHLE 151055Z AUTO 23005KT 180V260 9999 NSC 26/16 Q1003 NOSIG
12:25
V
26 °C 10 km+ - 210° 210° 7 kt METAR EHLE 151025Z AUTO 21007KT 170V260 9999 NSC 26/17 Q1003 NOSIG
11:55
V
25 °C 10 km+ - 260° 260° 5 kt METAR EHLE 150955Z AUTO 26005KT 220V320 9999 NSC 25/16 Q1003 NOSIG
11:25
V
25 °C 10 km+ - 270° 270° 6 kt METAR EHLE 150925Z AUTO 27006KT 190V300 9999 NSC 25/17 Q1003 NOSIG
10:55
V
24 °C 10 km+ - 270° 270° 7 kt METAR EHLE 150855Z AUTO 27007KT 240V300 9999 NSC 24/17 Q1003 NOSIG
10:25
V
24 °C 10 km+ - 250° 250° 9 kt METAR EHLE 150825Z AUTO 25009KT 9999 NSC 24/17 Q1002 NOSIG
09:55
V
24 °C 10 km+ - 270° 270° 10 kt METAR EHLE 150755Z AUTO 27010KT 240V310 9999 NSC 24/18 Q1002 NOSIG
09:25
V
23 °C 10 km+ - 250° 250° 6 kt METAR EHLE 150725Z AUTO 25006KT 230V290 9999 NSC 23/18 Q1002 NOSIG
08:55
V
24 °C 10 km+ - Var Var 2 kt METAR EHLE 150655Z AUTO VRB02KT 9999 FEW028CB 24/17 Q1002 RETS NOSIG
08:25
V
22 °C 10 km+ - 140° 140° 7 kt METAR EHLE 150625Z AUTO 14007KT 090V200 9999 TS FEW022CB 22/17 Q1002 BECMG NSW
07:55
V
21 °C 10 km+ - 190° 190° 8 kt METAR EHLE 150555Z AUTO 19008KT 160V220 9999 TS FEW015CB 21/18 Q1002 NOSIG
07:25
V
20 °C 10 km+ - 030° 030° 5 kt METAR EHLE 150525Z AUTO 03005KT 9999 NSC 20/17 Q1001 NOSIG
较旧的数据

我们和第三方通过cookies跟踪您在我们网站上的上网行为。如果您继续,我们认为您同意我们的cookie政策。 了解更多